Time,TemperatureF,DewpointF,PressureIn,WindDirection,WindDirectionDegrees,WindSpeedMPH,WindSpeedGustMPH,Humidity,HourlyPrecipIn,Conditions,Clouds,dailyrainin,SoftwareType,DateUTC
2013-01-10 00:01:00,51.8,51.5,29.91,South,180,1.1,-999.0,99,-99.99,,,0.00,Acu-Link.com,2013-01-10 06:01:00,
2013-01-10 00:16:00,51.8,51.5,29.91,ESE,112,0.0,-999.0,99,-99.99,,,0.00,Acu-Link.com,2013-01-10 06:16:00,
2013-01-10 00:31:00,51.8,51.5,29.90,SSW,202,2.7,-999.0,99,-99.99,,,0.00,Acu-Link.com,2013-01-10 06:31:00,
2013-01-10 00:46:00,51.4,51.2,29.90,South,180,7.8,-999.0,99,-99.99,,,0.00,Acu-Link.com,2013-01-10 06:46:00,
2013-01-10 01:01:00,50.5,50.3,29.90,SW,225,6.3,-999.0,99,-99.99,,,0.00,Acu-Link.com,2013-01-10 07:01:00,
2013-01-10 01:16:00,50.2,49.9,29.90,SW,225,2.7,-999.0,99,-99.99,,,0.00,Acu-Link.com,2013-01-10 07:16:00,
2013-01-10 01:32:00,49.8,49.6,29.89,South,180,4.3,-999.0,99,-99.99,,,0.00,Acu-Link.com,2013-01-10 07:32:00,
2013-01-10 01:47:00,49.6,49.4,29.89,South,180,2.2,-999.0,99,-99.99,,,0.00,Acu-Link.com,2013-01-10 07:47:00,
2013-01-10 02:02:00,49.6,49.4,29.91,South,180,7.4,-999.0,99,-99.99,,,0.00,Acu-Link.com,2013-01-10 08:02:00,
2013-01-10 02:18:00,49.5,49.2,29.90,WSW,247,3.8,-999.0,99,-99.99,,,0.00,Acu-Link.com,2013-01-10 08:18:00,
2013-01-10 02:33:00,49.3,49.0,29.89,SW,225,3.1,-999.0,99,-99.99,,,0.00,Acu-Link.com,2013-01-10 08:33:00,
2013-01-10 02:48:00,49.1,48.8,29.89,SSW,202,6.3,-999.0,99,-99.99,,,0.00,Acu-Link.com,2013-01-10 08:48:00,
2013-01-10 03:09:00,49.1,48.8,29.88,WSW,247,3.1,-999.0,99,-99.99,,,0.00,Acu-Link.com,2013-01-10 09:09:00,
2013-01-10 03:24:00,49.1,48.8,29.88,South,180,2.2,-999.0,99,-99.99,,,0.00,Acu-Link.com,2013-01-10 09:24:00,
2013-01-10 03:40:00,48.7,48.5,29.89,South,180,7.4,-999.0,99,-99.99,,,0.00,Acu-Link.com,2013-01-10 09:40:00,
2013-01-10 03:55:00,48.7,48.5,29.89,SSW,202,3.8,-999.0,99,-99.99,,,0.01,Acu-Link.com,2013-01-10 09:55:00,
2013-01-10 04:10:00,48.6,48.3,29.90,SSE,157,6.3,-999.0,99,-99.99,,,0.01,Acu-Link.com,2013-01-10 10:10:00,
2013-01-10 04:25:00,48.6,48.3,29.89,SSW,202,4.7,-999.0,99,-99.99,,,0.01,Acu-Link.com,2013-01-10 10:25:00,
2013-01-10 04:40:00,48.7,48.5,29.88,SSE,157,5.1,-999.0,99,-99.99,,,0.01,Acu-Link.com,2013-01-10 10:40:00,
2013-01-10 04:56:00,48.7,48.5,29.87,SSW,202,4.7,-999.0,99,-99.99,,,0.01,Acu-Link.com,2013-01-10 10:56:00,
2013-01-10 05:11:00,48.7,48.5,29.87,SW,225,5.1,-999.0,99,-99.99,,,0.01,Acu-Link.com,2013-01-10 11:11:00,
2013-01-10 05:26:00,48.4,48.1,29.87,WSW,247,4.7,-999.0,99,-99.99,,,0.01,Acu-Link.com,2013-01-10 11:26:00,
2013-01-10 05:41:00,48.0,47.8,29.87,South,180,8.3,-999.0,99,-99.99,,,0.01,Acu-Link.com,2013-01-10 11:41:00,
2013-01-10 05:56:00,47.8,47.6,29.88,SW,225,3.8,-999.0,99,-99.99,,,0.01,Acu-Link.com,2013-01-10 11:56:00,
2013-01-10 06:12:00,47.7,47.4,29.87,South,180,3.8,-999.0,99,-99.99,,,0.01,Acu-Link.com,2013-01-10 12:12:00,
2013-01-10 06:27:00,47.3,47.0,29.87,SW,225,3.1,-999.0,99,-99.99,,,0.01,Acu-Link.com,2013-01-10 12:27:00,
2013-01-10 06:42:00,47.1,46.9,29.87,South,180,7.8,-999.0,99,-99.99,,,0.01,Acu-Link.com,2013-01-10 12:42:00,
2013-01-10 06:57:00,46.9,46.7,29.87,SW,225,4.7,-999.0,99,-99.99,,,0.01,Acu-Link.com,2013-01-10 12:57:00,
2013-01-10 07:13:00,46.9,46.7,29.88,SW,225,3.1,-999.0,99,-99.99,,,0.01,Acu-Link.com,2013-01-10 13:13:00,
2013-01-10 07:28:00,46.6,46.3,29.87,SW,225,4.3,-999.0,99,-99.99,,,0.01,Acu-Link.com,2013-01-10 13:28:00,
2013-01-10 07:43:00,46.0,45.8,29.88,SSW,202,3.1,-999.0,99,-99.99,,,0.01,Acu-Link.com,2013-01-10 13:43:00,
2013-01-10 07:58:00,46.0,45.8,29.89,WSW,247,7.4,-999.0,99,-99.99,,,0.01,Acu-Link.com,2013-01-10 13:58:00,
2013-01-10 08:13:00,46.2,46.0,29.89,SSW,202,9.8,-999.0,99,-99.99,,,0.01,Acu-Link.com,2013-01-10 14:13:00,
2013-01-10 08:29:00,45.9,4.8,29.91,SW,225,6.3,-999.0,18,-99.99,,,0.01,Acu-Link.com,2013-01-10 14:29:00,
2013-01-10 08:44:00,45.7,34.2,29.90,WSW,247,3.8,-999.0,64,-99.99,,,0.01,Acu-Link.com,2013-01-10 14:44:00,
2013-01-10 08:59:00,45.9,41.6,29.91,SW,225,9.4,-999.0,85,-99.99,,,0.01,Acu-Link.com,2013-01-10 14:59:00,
2013-01-10 09:14:00,46.0,45.0,29.91,SW,225,9.4,-999.0,96,-99.99,,,0.01,Acu-Link.com,2013-01-10 15:14:00,
2013-01-10 09:29:00,46.8,46.2,29.91,SSW,202,5.8,-999.0,98,-99.99,,,0.01,Acu-Link.com,2013-01-10 15:29:00,
2013-01-10 09:45:00,46.9,46.4,29.92,WSW,247,9.4,-999.0,98,-99.99,,,0.01,Acu-Link.com,2013-01-10 15:45:00,
2013-01-10 10:00:00,47.7,47.1,29.92,SW,225,7.4,-999.0,98,-99.99,,,0.01,Acu-Link.com,2013-01-10 16:00:00,
2013-01-10 10:15:00,48.0,47.5,29.92,SW,225,3.8,-999.0,98,-99.99,,,0.01,Acu-Link.com,2013-01-10 16:15:00,
2013-01-10 10:30:00,49.1,48.6,29.92,West,270,7.8,-999.0,98,-99.99,,,0.01,Acu-Link.com,2013-01-10 16:30:00,
2013-01-10 10:45:00,49.6,49.1,29.92,SW,225,11.0,-999.0,98,-99.99,,,0.01,Acu-Link.com,2013-01-10 16:45:00,
2013-01-10 11:01:00,50.0,49.5,29.92,West,270,6.3,-999.0,98,-99.99,,,0.01,Acu-Link.com,2013-01-10 17:01:00,
2013-01-10 11:16:00,50.2,49.6,29.90,WSW,247,6.3,-999.0,98,-99.99,,,0.01,Acu-Link.com,2013-01-10 17:16:00,
2013-01-10 11:31:00,50.9,50.4,29.90,SW,225,5.8,-999.0,98,-99.99,,,0.01,Acu-Link.com,2013-01-10 17:31:00,
2013-01-10 11:46:00,51.1,50.5,29.89,WSW,247,4.7,-999.0,98,-99.99,,,0.01,Acu-Link.com,2013-01-10 17:46:00,
2013-01-10 12:02:00,51.8,51.3,29.87,SW,225,8.9,-999.0,98,-99.99,,,0.01,Acu-Link.com,2013-01-10 18:02:00,
2013-01-10 12:17:00,52.0,51.4,29.87,West,270,6.3,-999.0,98,-99.99,,,0.01,Acu-Link.com,2013-01-10 18:17:00,
2013-01-10 12:32:00,53.4,52.6,29.87,West,270,5.8,-999.0,97,-99.99,,,0.01,Acu-Link.com,2013-01-10 18:32:00,
2013-01-10 12:47:00,53.4,52.0,29.86,SW,225,8.3,-999.0,95,-99.99,,,0.01,Acu-Link.com,2013-01-10 18:47:00,
2013-01-10 13:02:00,54.0,52.3,29.86,WNW,292,7.4,-999.0,94,-99.99,,,0.01,Acu-Link.com,2013-01-10 19:02:00,
2013-01-10 13:17:00,53.8,52.4,29.86,West,270,5.1,-999.0,95,-99.99,,,0.01,Acu-Link.com,2013-01-10 19:17:00,
2013-01-10 13:33:00,53.6,52.8,29.86,SW,225,6.7,-999.0,97,-99.99,,,0.01,Acu-Link.com,2013-01-10 19:33:00,
2013-01-10 13:48:00,55.0,52.5,29.86,WSW,247,5.1,-999.0,91,-99.99,,,0.01,Acu-Link.com,2013-01-10 19:48:00,
2013-01-10 14:03:00,54.7,52.1,29.86,West,270,5.1,-999.0,91,-99.99,,,0.01,Acu-Link.com,2013-01-10 20:03:00,
2013-01-10 14:18:00,54.3,52.3,29.85,WSW,247,6.7,-999.0,93,-99.99,,,0.01,Acu-Link.com,2013-01-10 20:18:00,
2013-01-10 14:34:00,55.0,52.5,29.85,South,180,7.4,-999.0,91,-99.99,,,0.01,Acu-Link.com,2013-01-10 20:34:00,
2013-01-10 14:49:00,55.4,52.5,29.85,South,180,7.4,-999.0,90,-99.99,,,0.01,Acu-Link.com,2013-01-10 20:49:00,
2013-01-10 15:04:00,54.9,52.3,29.86,SSW,202,5.8,-999.0,91,-99.99,,,0.01,Acu-Link.com,2013-01-10 21:04:00,
2013-01-10 15:19:00,55.4,52.2,29.86,South,180,7.4,-999.0,89,-99.99,,,0.01,Acu-Link.com,2013-01-10 21:19:00,
2013-01-10 15:34:00,55.6,52.1,29.86,SSE,157,6.3,-999.0,88,-99.99,,,0.01,Acu-Link.com,2013-01-10 21:34:00,
2013-01-10 15:50:00,55.9,52.4,29.87,South,180,5.1,-999.0,88,-99.99,,,0.01,Acu-Link.com,2013-01-10 21:50:00,
2013-01-10 16:05:00,55.9,52.4,29.87,SE,135,8.3,-999.0,88,-99.99,,,0.01,Acu-Link.com,2013-01-10 22:05:00,
2013-01-10 16:20:00,56.1,52.6,29.87,SSE,157,4.3,-999.0,88,-99.99,,,0.01,Acu-Link.com,2013-01-10 22:20:00,
2013-01-10 16:35:00,56.7,53.1,29.87,SSW,202,2.7,-999.0,88,-99.99,,,0.01,Acu-Link.com,2013-01-10 22:35:00,
2013-01-10 16:50:00,57.7,52.6,29.87,SW,225,7.4,-999.0,83,-99.99,,,0.01,Acu-Link.com,2013-01-10 22:50:00,
2013-01-10 17:06:00,57.7,52.6,29.87,WSW,247,1.6,-999.0,83,-99.99,,,0.01,Acu-Link.com,2013-01-10 23:06:00,
2013-01-10 17:21:00,57.2,52.4,29.86,SW,225,2.7,-999.0,84,-99.99,,,0.01,Acu-Link.com,2013-01-10 23:21:00,
2013-01-10 17:36:00,56.1,52.6,29.87,SW,225,1.6,-999.0,88,-99.99,,,0.01,Acu-Link.com,2013-01-10 23:36:00,
2013-01-10 17:51:00,54.3,52.6,29.86,SSE,157,0.0,-999.0,94,-99.99,,,0.01,Acu-Link.com,2013-01-10 23:51:00,
2013-01-10 18:07:00,52.2,51.6,29.86,NW,315,0.0,-999.0,98,-99.99,,,0.01,Acu-Link.com,2013-01-11 00:07:00,
2013-01-10 18:22:00,50.4,49.8,29.87,WSW,247,0.0,-999.0,98,-99.99,,,0.01,Acu-Link.com,2013-01-11 00:22:00,
2013-01-10 18:37:00,48.6,48.0,29.87,WSW,247,0.0,-999.0,98,-99.99,,,0.01,Acu-Link.com,2013-01-11 00:37:00,
2013-01-10 18:52:00,47.5,46.9,29.87,South,180,0.0,-999.0,98,-99.99,,,0.01,Acu-Link.com,2013-01-11 00:52:00,
2013-01-10 19:07:00,46.8,46.2,29.87,ESE,112,0.0,-999.0,98,-99.99,,,0.01,Acu-Link.com,2013-01-11 01:07:00,
2013-01-10 19:22:00,45.7,45.1,29.87,ESE,112,0.0,-999.0,98,-99.99,,,0.01,Acu-Link.com,2013-01-11 01:22:00,
2013-01-10 19:38:00,44.4,43.9,29.86,SW,225,0.0,-999.0,98,-99.99,,,0.01,Acu-Link.com,2013-01-11 01:38:00,
2013-01-10 19:53:00,43.3,42.8,29.87,WSW,247,0.0,-999.0,98,-99.99,,,0.01,Acu-Link.com,2013-01-11 01:53:00,
2013-01-10 20:08:00,43.0,42.5,29.86,NW,315,0.0,-999.0,98,-99.99,,,0.01,Acu-Link.com,2013-01-11 02:08:00,
2013-01-10 20:23:00,42.1,41.6,29.86,WNW,292,0.0,-999.0,98,-99.99,,,0.01,Acu-Link.com,2013-01-11 02:23:00,
2013-01-10 20:38:00,41.5,41.0,29.86,SW,225,0.0,-999.0,98,-99.99,,,0.01,Acu-Link.com,2013-01-11 02:38:00,
2013-01-10 20:54:00,41.5,39.4,29.86,SSW,202,0.0,-999.0,92,-99.99,,,0.01,Acu-Link.com,2013-01-11 02:54:00,
2013-01-10 21:09:00,41.9,38.6,29.86,SSW,202,0.0,-999.0,88,-99.99,,,0.01,Acu-Link.com,2013-01-11 03:09:00,
2013-01-10 21:24:00,41.9,39.7,29.87,ESE,112,0.0,-999.0,92,-99.99,,,0.01,Acu-Link.com,2013-01-11 03:24:00,
2013-01-10 21:39:00,42.4,34.4,29.87,South,180,0.0,-999.0,73,-99.99,,,0.01,Acu-Link.com,2013-01-11 03:39:00,
2013-01-10 21:54:00,43.0,-2.9,29.88,ESE,112,0.0,-999.0,14,-99.99,,,0.01,Acu-Link.com,2013-01-11 03:54:00,
2013-01-10 22:10:00,43.2,42.9,29.87,SSE,157,0.0,-999.0,99,-99.99,,,0.01,Acu-Link.com,2013-01-11 04:10:00,
2013-01-10 22:25:00,42.8,42.5,29.87,WSW,247,0.0,-999.0,99,-99.99,,,0.01,Acu-Link.com,2013-01-11 04:25:00,
2013-01-10 22:40:00,42.3,42.0,29.88,South,180,0.0,-999.0,99,-99.99,,,0.01,Acu-Link.com,2013-01-11 04:40:00,
2013-01-10 22:55:00,43.0,42.7,29.87,South,180,0.0,-999.0,99,-99.99,,,0.01,Acu-Link.com,2013-01-11 04:55:00,
2013-01-10 23:10:00,43.2,42.9,29.87,SSW,202,0.0,-999.0,99,-99.99,,,0.01,Acu-Link.com,2013-01-11 05:10:00,
2013-01-10 23:26:00,42.4,42.2,29.87,SE,135,0.0,-999.0,99,-99.99,,,0.01,Acu-Link.com,2013-01-11 05:26:00,
2013-01-10 23:41:00,42.1,41.8,29.87,South,180,0.0,-999.0,99,-99.99,,,0.01,Acu-Link.com,2013-01-11 05:41:00,
2013-01-10 23:56:00,42.3,42.0,29.87,SSE,157,0.0,-999.0,99,-99.99,,,0.01,Acu-Link.com,2013-01-11 05:56:00,